Time;durP1;ratioP1;P1;durP2;ratioP2;P2;SDS_P1;SDS_P2;PMS_P1;PMS_P2;Temp;Humidity;BMP_temperature;BMP_pressure;BME280_temperature;BME280_humidity;BME280_pressure;Samples;Min_cycle;Max_cycle;Signal;HPM_P1;HPM_P2
2023/10/03 00:02:00;;;;;;;36.53;25.27;;;;;;;16.99;100.00;100942.84;5092956;28;20024;-63
2023/10/03 00:04:26;;;;;;;38.70;25.20;;;;;;;17.03;100.00;100944.91;5092873;28;20020;-63
2023/10/03 00:06:51;;;;;;;36.42;25.58;;;;;;;17.04;100.00;100933.41;5093272;28;20424;-63
2023/10/03 00:09:16;;;;;;;37.97;25.42;;;;;;;17.06;100.00;100924.66;5076847;28;20123;-63
2023/10/03 00:11:42;;;;;;;39.08;25.98;;;;;;;17.06;100.00;100919.09;5067237;28;20032;-63
2023/10/03 00:14:07;;;;;;;37.60;24.25;;;;;;;17.06;100.00;100916.28;5072250;28;20123;-63
2023/10/03 00:16:34;;;;;;;35.90;23.13;;;;;;;17.07;100.00;100910.34;5072860;28;20032;-63
2023/10/03 00:18:59;;;;;;;39.58;25.38;;;;;;;17.06;100.00;100914.28;5071578;28;20755;-63
2023/10/03 00:21:25;;;;;;;38.50;25.38;;;;;;;17.09;100.00;100916.41;5062104;28;20135;-63
2023/10/03 00:23:50;;;;;;;37.53;24.88;;;;;;;17.10;100.00;100911.63;5072899;28;20028;-63
2023/10/03 00:26:17;;;;;;;38.50;25.15;;;;;;;17.09;100.00;100902.44;5072890;28;20032;-63
2023/10/03 00:28:44;;;;;;;37.13;24.75;;;;;;;17.09;100.00;100913.59;5072476;28;20071;-63
2023/10/03 00:31:11;;;;;;;34.85;24.38;;;;;;;17.05;100.00;100907.06;5073035;28;20021;-63
2023/10/03 00:33:37;;;;;;;39.53;25.60;;;;;;;17.06;100.00;100902.31;5072799;28;20024;-63
2023/10/03 00:36:03;;;;;;;37.17;24.38;;;;;;;17.02;100.00;100906.97;5072679;28;20444;-63
2023/10/03 00:38:29;;;;;;;38.72;25.20;;;;;;;16.98;100.00;100902.09;5072604;28;20036;-63
2023/10/03 00:40:55;;;;;;;38.72;25.15;;;;;;;16.95;100.00;100894.38;5063243;28;20454;-63
2023/10/03 00:43:21;;;;;;;38.97;24.67;;;;;;;16.90;100.00;100889.00;5053817;28;20028;-63
2023/10/03 00:45:48;;;;;;;38.38;24.90;;;;;;;16.83;100.00;100881.22;5054590;28;20361;-63
2023/10/03 00:48:15;;;;;;;38.40;26.40;;;;;;;16.80;100.00;100873.50;5071012;28;20468;-63
2023/10/03 00:50:42;;;;;;;39.58;25.80;;;;;;;16.79;100.00;100865.50;5072118;28;20419;-63
2023/10/03 00:53:08;;;;;;;37.47;25.98;;;;;;;16.75;100.00;100861.75;5072308;28;20125;-64
2023/10/03 00:55:36;;;;;;;37.70;25.15;;;;;;;16.73;100.00;100847.31;5072163;28;20025;-63
2023/10/03 01:00:49;;;;;;;38.58;24.83;;;;;;;16.68;100.00;100834.38;5072260;28;20033;-63
2023/10/03 01:03:37;;;;;;;39.63;26.58;;;;;;;16.66;100.00;100823.56;5071994;28;20036;-64
2023/10/03 01:06:12;;;;;;;37.95;25.25;;;;;;;16.61;100.00;100818.22;5052204;28;20036;-64
2023/10/03 01:08:41;;;;;;;37.65;25.48;;;;;;;16.59;100.00;100814.97;5052258;28;20029;-63
2023/10/03 01:11:20;;;;;;;40.70;25.45;;;;;;;16.60;100.00;100807.38;5065964;28;20506;-64
2023/10/03 01:13:48;;;;;;;38.47;25.33;;;;;;;16.56;100.00;100800.88;5070966;28;20041;-63
2023/10/03 01:16:28;;;;;;;38.05;25.98;;;;;;;16.57;100.00;100794.13;5053010;28;20078;-63
2023/10/03 01:18:58;;;;;;;34.53;24.30;;;;;;;16.54;100.00;100787.25;5070270;28;20072;-63
2023/10/03 01:21:25;;;;;;;37.90;23.83;;;;;;;16.52;100.00;100786.81;5061369;28;20040;-63
2023/10/03 01:23:50;;;;;;;38.88;24.85;;;;;;;16.53;100.00;100777.28;5071745;28;20457;-64
2023/10/03 01:26:17;;;;;;;38.97;25.25;;;;;;;16.55;100.00;100772.13;5071742;28;20062;-63
2023/10/03 01:28:43;;;;;;;38.92;24.80;;;;;;;16.55;100.00;100772.13;5071606;28;20472;-63
2023/10/03 01:31:08;;;;;;;38.45;24.92;;;;;;;16.55;100.00;100774.13;5071354;28;20132;-63
2023/10/03 01:33:35;;;;;;;36.95;25.17;;;;;;;16.54;100.00;100770.50;5074434;28;20107;-64
2023/10/03 01:36:01;;;;;;;39.08;24.67;;;;;;;16.53;100.00;100761.31;5071629;28;20111;-63
2023/10/03 01:38:27;;;;;;;39.22;25.67;;;;;;;16.55;100.00;100766.53;5071733;28;20050;-64
2023/10/03 01:40:53;;;;;;;37.45;25.52;;;;;;;16.57;100.00;100757.84;5071198;28;20040;-63
2023/10/03 01:43:18;;;;;;;39.08;25.08;;;;;;;16.53;100.00;100761.31;5058207;28;20045;-63
2023/10/03 01:45:44;;;;;;;37.88;23.98;;;;;;;16.53;100.00;100760.50;5069048;28;20369;-64
2023/10/03 01:48:12;;;;;;;38.28;24.17;;;;;;;16.51;100.00;100755.25;5065873;28;20041;-63
2023/10/03 01:50:38;;;;;;;38.00;25.15;;;;;;;16.49;100.00;100745.63;5066830;28;20472;-63
2023/10/03 01:53:04;;;;;;;39.53;24.75;;;;;;;16.48;100.00;100733.59;5071331;28;20032;-63
2023/10/03 01:55:29;;;;;;;39.90;24.35;;;;;;;16.51;100.00;100744.09;5071024;28;20024;-63
2023/10/03 01:57:55;;;;;;;34.80;23.63;;;;;;;16.57;100.00;100753.06;5071118;28;20472;-63
2023/10/03 02:00:25;;;;;;;38.22;23.75;;;;;;;16.55;100.00;100743.41;5071036;28;20060;-63
2023/10/03 02:02:56;;;;;;;37.55;24.80;;;;;;;16.61;100.00;100754.00;5082310;28;20032;-63
2023/10/03 02:05:26;;;;;;;36.95;24.73;;;;;;;16.62;100.00;100750.03;5091259;28;20039;-63
2023/10/03 02:07:52;;;;;;;39.13;26.48;;;;;;;16.62;100.00;100749.22;5090994;28;20038;-62
2023/10/03 02:10:19;;;;;;;37.78;25.30;;;;;;;16.62;100.00;100743.63;5090929;28;20024;-63
2023/10/03 02:12:50;;;;;;;40.28;25.50;;;;;;;16.62;100.00;100726.88;5083475;28;20148;-63
2023/10/03 02:15:26;;;;;;;37.03;24.17;;;;;;;16.67;100.00;100737.81;5053129;28;20033;-63
2023/10/03 02:17:53;;;;;;;36.95;24.95;;;;;;;16.73;100.00;100722.44;5063855;28;20750;-63
2023/10/03 02:20:20;;;;;;;37.25;24.23;;;;;;;16.73;100.00;100721.59;5051256;28;20482;-63
2023/10/03 02:22:54;;;;;;;35.63;25.05;;;;;;;16.78;100.00;100722.19;5068813;28;20032;-62
2023/10/03 02:25:29;;;;;;;37.33;23.98;;;;;;;16.78;100.00;100722.19;5058265;28;20061;-63
2023/10/03 02:27:59;;;;;;;37.78;24.25;;;;;;;16.82;100.00;100722.28;5062429;28;20403;-63
2023/10/03 02:30:25;;;;;;;35.40;22.85;;;;;;;16.87;100.00;100712.84;5074842;28;20091;-63
2023/10/03 02:32:55;;;;;;;36.17;23.33;;;;;;;16.92;100.00;100693.06;5074921;28;20131;-63
2023/10/03 02:35:25;;;;;;;35.97;22.60;;;;;;;16.97;100.00;100692.84;5074700;28;20063;-63
2023/10/03 02:37:59;;;;;;;37.03;23.58;;;;;;;17.03;100.00;100716.59;5074679;28;20547;-63
2023/10/03 02:40:28;;;;;;;34.65;22.77;;;;;;;17.10;100.00;100716.78;5074381;28;20396;-63
2023/10/03 02:42:54;;;;;;;32.90;22.02;;;;;;;17.24;100.00;100724.00;5074365;28;20063;-63
2023/10/03 02:45:24;;;;;;;35.00;22.42;;;;;;;17.40;100.00;100721.22;5064392;28;20025;-63
2023/10/03 02:47:51;;;;;;;36.10;22.27;;;;;;;17.50;100.00;100726.31;5062321;28;20032;-63
2023/10/03 02:50:18;;;;;;;37.22;22.75;;;;;;;17.65;100.00;100715.53;5055631;28;20029;-63
2023/10/03 02:52:45;;;;;;;35.08;20.92;;;;;;;17.71;100.00;100717.69;5074324;28;20025;-64
2023/10/03 02:55:14;;;;;;;32.20;21.42;;;;;;;17.80;100.00;100725.94;5074607;28;20024;-63
2023/10/03 02:57:40;;;;;;;34.25;21.85;;;;;;;17.89;100.00;100728.56;5074479;28;20060;-63
2023/10/03 03:00:12;;;;;;;32.08;21.23;;;;;;;17.94;100.00;100728.28;5074452;28;20070;-63
2023/10/03 03:02:47;;;;;;;33.20;22.13;;;;;;;17.95;100.00;100729.91;5074237;28;20456;-63
2023/10/03 03:05:17;;;;;;;33.67;22.55;;;;;;;18.02;100.00;100734.94;5074049;28;20044;-63
2023/10/03 03:07:47;;;;;;;34.20;20.92;;;;;;;18.03;100.00;100740.16;5074017;28;20435;-63
2023/10/03 03:10:21;;;;;;;33.10;21.25;;;;;;;18.08;100.00;100739.91;5074082;28;20025;-63
2023/10/03 03:12:46;;;;;;;;;;;;;;;18.13;100.00;100744.41;5074015;28;20099;-64
2023/10/03 03:15:21;;;;;;;30.45;20.25;;;;;;;18.20;100.00;100733.41;5053944;28;20008;-63
2023/10/03 03:17:50;;;;;;;30.15;19.70;;;;;;;18.25;100.00;100735.13;5071550;28;20082;-63
2023/10/03 03:20:37;;;;;;;31.25;20.58;;;;;;;18.27;100.00;100729.97;5074275;28;20119;-63
2023/10/03 03:23:03;;;;;;;30.92;20.40;;;;;;;18.28;100.00;100731.56;5062553;28;20041;-63
2023/10/03 03:25:38;;;;;;;31.02;20.42;;;;;;;18.26;100.00;100721.91;5073847;28;20021;-63
2023/10/03 03:28:13;;;;;;;33.38;20.60;;;;;;;18.25;100.00;100729.50;5073862;28;20036;-63
2023/10/03 03:30:55;;;;;;;32.92;20.52;;;;;;;18.19;100.00;100725.34;5073951;28;20033;-63
2023/10/03 03:33:21;;;;;;;32.78;21.75;;;;;;;18.20;100.00;100724.16;5073881;28;20121;-63
2023/10/03 03:35:47;;;;;;;31.13;20.63;;;;;;;18.20;100.00;100715.78;5073724;28;20431;-64
2023/10/03 03:38:20;;;;;;;30.92;20.20;;;;;;;18.17;100.00;100717.31;5073556;28;20381;-64
2023/10/03 03:40:47;;;;;;;30.05;19.92;;;;;;;18.20;100.00;100715.78;5072624;28;21393;-63
2023/10/03 03:43:16;;;;;;;29.88;19.50;;;;;;;18.19;100.00;100723.38;5073325;28;20028;-63
2023/10/03 03:45:42;;;;;;;28.77;19.73;;;;;;;18.19;100.00;100720.56;5062466;28;20051;-63
2023/10/03 03:48:07;;;;;;;30.10;19.45;;;;;;;18.19;100.00;100730.94;5068974;28;20468;-64
2023/10/03 03:50:32;;;;;;;29.95;19.77;;;;;;;18.20;100.00;100726.97;5074303;28;20036;-63
2023/10/03 03:53:03;;;;;;;31.30;20.20;;;;;;;18.21;100.00;100715.44;5064607;28;20031;-64
2023/10/03 03:55:30;;;;;;;29.60;19.45;;;;;;;18.18;100.00;100721.75;5073477;28;20041;-63
2023/10/03 03:58:07;;;;;;;31.08;20.00;;;;;;;18.18;100.00;100726.53;5073422;28;20028;-63
2023/10/03 04:00:34;;;;;;;28.90;19.05;;;;;;;18.16;100.00;100726.09;5073438;28;20064;-63
2023/10/03 04:03:05;;;;;;;30.35;20.08;;;;;;;18.14;100.00;100728.41;5073350;28;20020;-63
2023/10/03 04:05:32;;;;;;;28.33;19.17;;;;;;;18.19;100.00;100731.78;5073039;28;20040;-63
2023/10/03 04:07:59;;;;;;;28.33;18.83;;;;;;;18.18;100.00;100735.75;5073242;28;20029;-63
2023/10/03 04:10:26;;;;;;;29.90;19.00;;;;;;;18.21;100.00;100739.78;5073262;28;20089;-63
2023/10/03 04:12:51;;;;;;;29.23;19.30;;;;;;;18.24;100.00;100744.69;5073080;28;20450;-63
2023/10/03 04:15:20;;;;;;;29.02;20.17;;;;;;;18.22;100.00;100750.66;5064755;28;20061;-63
2023/10/03 04:17:46;;;;;;;28.88;18.98;;;;;;;18.21;100.00;100751.81;5062918;28;20017;-63
2023/10/03 04:22:50;;;;;;;28.45;19.50;;;;;;;18.22;100.00;100763.81;5063416;28;20094;-63
2023/10/03 04:25:20;;;;;;;27.70;18.20;;;;;;;18.25;100.00;100771.50;5072599;28;20166;-63
2023/10/03 04:27:51;;;;;;;27.50;18.27;;;;;;;18.31;100.00;100774.88;5072841;28;20526;-64
2023/10/03 04:30:19;;;;;;;29.45;19.70;;;;;;;18.30;100.00;100764.84;5072821;28;20032;-64
2023/10/03 04:32:47;;;;;;;29.13;18.48;;;;;;;18.26;100.00;100769.50;5072496;28;20051;-64
2023/10/03 04:35:13;;;;;;;25.50;18.00;;;;;;;18.27;100.00;100780.38;5072631;28;20028;-64
2023/10/03 04:37:43;;;;;;;25.48;18.15;;;;;;;18.29;100.00;100778.00;5073722;28;20036;-63
2023/10/03 04:40:16;;;;;;;26.70;18.08;;;;;;;18.32;100.00;100774.50;5090321;28;20462;-63
2023/10/03 04:42:44;;;;;;;26.17;17.52;;;;;;;18.34;100.00;100782.50;5072543;28;20611;-64
2023/10/03 04:45:18;;;;;;;26.33;17.92;;;;;;;18.33;100.00;100783.69;5071600;28;20115;-64
2023/10/03 04:47:44;;;;;;;24.95;17.23;;;;;;;18.30;100.00;100778.84;5053421;28;20056;-64
2023/10/03 04:50:11;;;;;;;24.23;16.77;;;;;;;18.36;100.00;100785.78;5065823;28;20025;-64
2023/10/03 04:52:36;;;;;;;23.85;17.67;;;;;;;18.33;100.00;100790.13;5035319;28;20177;-64
2023/10/03 04:55:02;;;;;;;26.35;17.05;;;;;;;18.34;100.00;100796.53;5071934;28;20044;-64
2023/10/03 04:57:28;;;;;;;24.50;16.60;;;;;;;18.29;100.00;100817.19;5061055;28;20036;-63
2023/10/03 04:59:57;;;;;;;23.67;16.10;;;;;;;18.27;100.00;100816.78;5071818;28;20094;-64
2023/10/03 05:02:23;;;;;;;27.95;15.88;;;;;;;18.21;100.00;100818.19;5072208;28;20043;-64
2023/10/03 05:04:48;;;;;;;21.98;15.70;;;;;;;18.16;100.00;100819.28;5072159;28;20028;-63
2023/10/03 05:07:13;;;;;;;25.42;16.45;;;;;;;18.07;100.00;100799.84;5071876;28;20021;-63
2023/10/03 05:09:39;;;;;;;23.08;15.75;;;;;;;18.07;100.00;100791.47;5071785;28;20039;-64
2023/10/03 05:12:04;;;;;;;25.40;16.55;;;;;;;18.03;100.00;100801.72;5071645;28;20024;-65
2023/10/03 05:14:30;;;;;;;22.20;16.10;;;;;;;18.01;100.00;100814.47;5085052;28;20028;-64
2023/10/03 05:16:58;;;;;;;23.33;15.60;;;;;;;18.00;100.00;100827.63;5090949;28;20028;-65
2023/10/03 05:19:24;;;;;;;23.70;16.08;;;;;;;17.97;100.00;100833.13;5090727;28;20039;-65
2023/10/03 05:21:49;;;;;;;23.70;16.00;;;;;;;17.94;100.00;100845.84;5058225;28;20029;-64
2023/10/03 05:24:15;;;;;;;23.00;16.10;;;;;;;17.90;100.00;100858.94;5070532;28;20029;-65
2023/10/03 05:26:41;;;;;;;22.33;15.95;;;;;;;17.89;100.00;100866.50;5051946;28;20044;-64
2023/10/03 05:29:07;;;;;;;23.77;16.67;;;;;;;17.90;100.00;100856.13;5071289;28;20524;-64
2023/10/03 05:31:34;;;;;;;22.45;16.45;;;;;;;17.87;100.00;100834.44;5079568;28;20551;-64
2023/10/03 05:33:59;;;;;;;23.90;16.50;;;;;;;17.82;100.00;100826.28;5079365;28;20051;-64
2023/10/03 05:36:25;;;;;;;24.33;16.58;;;;;;;17.79;100.00;100816.63;5090526;28;20505;-64
2023/10/03 05:38:50;;;;;;;23.95;17.10;;;;;;;17.78;100.00;100829.81;5082910;28;20036;-64
2023/10/03 05:41:23;;;;;;;24.90;16.92;;;;;;;17.77;100.00;100827.34;5069835;28;20046;-64
2023/10/03 05:43:48;;;;;;;22.15;16.45;;;;;;;17.75;100.00;100824.94;5077036;28;20061;-64
2023/10/03 05:46:14;;;;;;;24.02;16.50;;;;;;;17.79;100.00;100825.03;5082408;28;20033;-65
2023/10/03 05:48:40;;;;;;;22.05;15.95;;;;;;;17.76;100.00;100846.13;5070024;28;20029;-64
2023/10/03 05:51:07;;;;;;;23.38;15.60;;;;;;;17.77;100.00;100846.94;5062296;28;20052;-64
2023/10/03 05:53:34;;;;;;;23.85;16.05;;;;;;;17.77;100.00;100846.94;5055868;28;20032;-63
2023/10/03 05:55:59;;;;;;;23.25;16.27;;;;;;;17.74;100.00;100848.47;5058143;28;20024;-63
2023/10/03 05:58:25;;;;;;;23.13;15.95;;;;;;;17.76;100.00;100843.34;5068767;28;20033;-64
2023/10/03 06:00:50;;;;;;;23.48;16.13;;;;;;;17.80;100.00;100842.66;5063476;28;20068;-65
2023/10/03 06:03:16;;;;;;;22.75;15.90;;;;;;;17.82;100.00;100855.09;5056345;28;20028;-65
2023/10/03 06:05:41;;;;;;;21.85;15.90;;;;;;;17.79;100.00;100847.41;5069662;28;20116;-63
2023/10/03 06:08:09;;;;;;;22.52;15.70;;;;;;;17.78;100.00;100854.16;5055481;28;20117;-65
2023/10/03 06:10:34;;;;;;;24.08;16.48;;;;;;;17.77;100.00;100846.94;5065920;28;20033;-66
2023/10/03 06:12:59;;;;;;;22.58;15.75;;;;;;;17.78;100.00;100852.19;5070672;28;20097;-65
2023/10/03 06:15:25;;;;;;;24.98;16.58;;;;;;;17.77;100.00;100858.13;5066901;28;20727;-68
2023/10/03 06:17:52;;;;;;;23.65;16.23;;;;;;;17.72;100.00;100859.19;5055019;28;20143;-72
2023/10/03 06:20:17;;;;;;;23.80;16.42;;;;;;;17.77;100.00;100853.38;5069132;28;20108;-63
2023/10/03 06:22:43;;;;;;;25.25;15.35;;;;;;;17.81;100.00;100863.81;5057465;28;20112;-63
2023/10/03 06:25:09;;;;;;;22.75;15.32;;;;;;;17.79;100.00;100861.41;5064618;28;20078;-63
2023/10/03 06:27:35;;;;;;;23.00;14.88;;;;;;;17.79;100.00;100869.78;5068646;28;20047;-64
2023/10/03 06:30:00;;;;;;;21.45;15.32;;;;;;;17.80;100.00;100870.63;5066702;28;20456;-63
2023/10/03 06:32:25;;;;;;;22.00;15.13;;;;;;;17.84;100.00;100879.91;5056593;28;20021;-63
2023/10/03 06:34:52;;;;;;;23.40;15.63;;;;;;;17.80;100.00;100882.63;5061168;28;20612;-64
2023/10/03 06:37:17;;;;;;;23.05;15.45;;;;;;;17.82;100.00;100891.47;5067812;28;20465;-65
2023/10/03 06:39:43;;;;;;;23.75;15.45;;;;;;;17.80;100.00;100891.00;5068122;28;20029;-63
2023/10/03 06:42:08;;;;;;;23.08;15.02;;;;;;;17.83;100.00;100889.47;5063276;28;20049;-64
2023/10/03 06:44:36;;;;;;;20.35;14.85;;;;;;;17.82;100.00;100896.25;5067326;28;20500;-63
2023/10/03 06:47:03;;;;;;;22.40;15.07;;;;;;;17.81;100.00;100909.44;5067852;28;20123;-64
2023/10/03 06:49:29;;;;;;;22.70;15.32;;;;;;;17.77;100.00;100895.34;5063452;28;20024;-65
2023/10/03 06:51:57;;;;;;;20.77;14.77;;;;;;;17.77;100.00;100902.91;5066453;28;20433;-64
2023/10/03 06:54:23;;;;;;;22.30;14.52;;;;;;;17.68;100.00;100908.66;5061283;28;20112;-64
2023/10/03 06:56:49;;;;;;;21.13;14.68;;;;;;;17.62;100.00;100915.63;5061127;28;20101;-64
2023/10/03 06:59:15;;;;;;;20.83;13.63;;;;;;;17.57;100.00;100916.69;5068844;28;20041;-64
2023/10/03 07:01:41;;;;;;;22.92;14.10;;;;;;;17.53;100.00;100920.56;5050578;28;20029;-64
2023/10/03 07:04:06;;;;;;;20.27;14.35;;;;;;;17.48;100.00;100938.38;5062457;28;20029;-65
2023/10/03 07:06:33;;;;;;;21.27;14.48;;;;;;;17.44;100.00;100940.28;5049869;28;20392;-64
2023/10/03 07:08:58;;;;;;;20.02;14.57;;;;;;;17.41;100.00;100943.75;5053257;28;20048;-64
2023/10/03 07:11:24;;;;;;;22.15;15.60;;;;;;;17.37;100.00;100954.03;5056777;28;20064;-63
2023/10/03 07:13:50;;;;;;;22.35;15.73;;;;;;;17.30;100.00;100930.25;5061789;28;20068;-63
2023/10/03 07:16:16;;;;;;;22.35;16.15;;;;;;;17.26;100.00;100920.13;5053456;28;20039;-64
2023/10/03 07:18:43;;;;;;;22.70;16.50;;;;;;;17.29;100.00;100942.59;5062535;28;20029;-63
2023/10/03 07:21:09;;;;;;;25.63;17.17;;;;;;;17.26;100.00;100939.69;5072986;28;20094;-64
2023/10/03 07:23:34;;;;;;;23.85;17.33;;;;;;;17.24;100.00;100916.88;5073034;28;20151;-65
2023/10/03 07:26:00;;;;;;;24.85;17.73;;;;;;;17.29;100.00;100925.81;5092559;28;20039;-65
2023/10/03 07:28:25;;;;;;;26.50;17.20;;;;;;;17.34;100.00;100924.78;5093261;28;20028;-63
2023/10/03 07:30:51;;;;;;;23.23;17.20;;;;;;;17.37;100.00;100923.28;5074813;28;20094;-63
2023/10/03 07:33:16;;;;;;;24.80;18.13;;;;;;;17.42;100.00;100942.59;5073038;28;20024;-63
2023/10/03 07:35:44;;;;;;;25.70;16.95;;;;;;;17.49;100.00;100939.22;5073111;28;20032;-64
2023/10/03 07:38:11;;;;;;;25.25;17.45;;;;;;;17.52;100.00;100932.94;5073197;28;20020;-65
2023/10/03 07:40:40;;;;;;;24.20;17.65;;;;;;;17.56;100.00;100933.84;5073279;28;20044;-64
2023/10/03 07:43:09;;;;;;;26.48;17.80;;;;;;;17.61;100.00;100942.81;5069496;28;20486;-64
2023/10/03 07:45:36;;;;;;;26.65;17.58;;;;;;;17.70;100.00;100953.88;5081071;28;20063;-64
2023/10/03 07:48:04;;;;;;;23.90;16.48;;;;;;;17.76;100.00;100949.66;5072781;28;20032;-65
2023/10/03 07:50:31;;;;;;;23.30;16.92;;;;;;;17.84;100.00;100958.28;5065956;28;20126;-64
2023/10/03 07:52:57;;;;;;;23.25;16.70;;;;;;;17.88;100.00;100964.81;5068237;28;20085;-65
2023/10/03 07:55:25;;;;;;;25.17;17.45;;;;;;;17.87;100.00;100977.97;5067784;28;20115;-65
2023/10/03 07:57:54;;;;;;;22.80;16.95;;;;;;;17.80;100.00;100994.53;5063952;28;20540;-65
2023/10/03 08:00:20;;;;;;;23.13;17.48;;;;;;;17.76;100.00;100999.19;5072614;28;20028;-66
2023/10/03 08:02:46;;;;;;;22.83;17.00;;;;;;;17.74;100.00;100998.75;5056453;28;20036;-66
2023/10/03 08:05:12;;;;;;;24.80;17.45;;;;;;;17.70;100.00;100986.63;5067445;28;20047;-66
2023/10/03 08:07:38;;;;;;;23.67;16.73;;;;;;;17.67;100.00;100974.16;5054582;28;20029;-65
2023/10/03 08:10:05;;;;;;;25.30;17.60;;;;;;;17.65;100.00;100992.47;5064947;28;20111;-64
2023/10/03 08:12:32;;;;;;;22.77;16.42;;;;;;;17.63;100.00;101006.78;5054501;28;20032;-65
2023/10/03 08:14:57;;;;;;;24.77;17.10;;;;;;;17.61;100.00;101023.13;5066003;28;20033;-65
2023/10/03 08:17:26;;;;;;;24.27;16.63;;;;;;;17.51;100.00;101013.22;5052179;28;20105;-67
2023/10/03 08:19:52;;;;;;;24.10;16.30;;;;;;;17.55;100.00;101027.31;5058924;28;20036;-64
2023/10/03 08:22:20;;;;;;;23.33;16.38;;;;;;;17.57;100.00;101031.38;5071783;28;20034;-65
2023/10/03 08:24:45;;;;;;;23.63;16.60;;;;;;;17.63;100.00;101023.56;5071871;28;20119;-64
2023/10/03 08:27:18;;;;;;;23.02;15.90;;;;;;;17.73;100.00;101050.28;5071226;28;20158;-65
2023/10/03 08:29:57;;;;;;;22.73;15.83;;;;;;;17.84;100.00;101053.41;5077294;28;20032;-64
2023/10/03 08:32:26;;;;;;;22.33;15.05;;;;;;;17.91;100.00;101054.47;5092097;28;20278;-65
2023/10/03 08:34:52;;;;;;;22.55;14.57;;;;;;;18.01;100.00;101057.97;5085247;28;20546;-63
2023/10/03 08:37:24;;;;;;;22.05;13.23;;;;;;;18.06;100.00;101060.53;5071571;28;20066;-65
2023/10/03 08:39:51;;;;;;;20.00;12.10;;;;;;;18.09;100.00;101062.63;5071563;28;20038;-65
2023/10/03 08:42:34;;;;;;;18.00;11.57;;;;;;;18.13;100.00;101069.16;5071308;28;20074;-65
2023/10/03 08:45:17;;;;;;;18.88;10.93;;;;;;;18.17;100.00;101092.47;5072061;28;20029;-65
2023/10/03 08:47:47;;;;;;;17.25;10.70;;;;;;;18.19;100.00;101081.75;5071279;28;20036;-66
2023/10/03 08:50:33;;;;;;;20.33;11.13;;;;;;;18.14;100.00;101098.78;5071558;28;20024;-66
2023/10/03 08:53:12;;;;;;;19.00;10.93;;;;;;;18.06;100.00;101094.13;5071352;28;20120;-65
2023/10/03 08:55:48;;;;;;;16.02;10.48;;;;;;;18.12;100.00;101112.31;5071769;28;20028;-66
2023/10/03 08:58:18;;;;;;;16.20;10.13;;;;;;;18.01;100.00;101108.38;5071089;28;20094;-66
2023/10/03 09:00:46;;;;;;;18.67;10.45;;;;;;;17.94;100.00;101128.50;5083241;28;20125;-65
2023/10/03 09:03:13;;;;;;;14.50;10.18;;;;;;;17.76;100.00;101150.28;5091158;28;20028;-64
2023/10/03 09:05:40;;;;;;;15.32;10.25;;;;;;;17.16;100.00;101161.81;5045409;28;20460;-65
2023/10/03 09:08:13;;;;;;;15.15;10.45;;;;;;;16.17;100.00;101150.88;5060766;28;20031;-66
2023/10/03 09:10:51;;;;;;;14.23;10.30;;;;;;;15.96;100.00;101141.63;5065825;28;20139;-65
2023/10/03 09:13:23;;;;;;;16.35;10.50;;;;;;;15.92;100.00;101149.03;5051038;28;20074;-66
2023/10/03 09:15:49;;;;;;;14.70;10.63;;;;;;;15.90;100.00;101152.16;5062704;28;20052;-66
2023/10/03 09:18:21;;;;;;;14.80;10.63;;;;;;;16.03;100.00;101158.66;5061290;28;20033;-65
2023/10/03 09:20:49;;;;;;;16.52;10.60;;;;;;;16.25;100.00;101154.75;5068805;28;20056;-66
2023/10/03 09:23:17;;;;;;;14.60;10.43;;;;;;;16.45;100.00;101163.50;5064223;28;20028;-66
2023/10/03 09:25:48;;;;;;;15.50;10.27;;;;;;;16.67;100.00;101182.72;5070903;28;20036;-66
2023/10/03 09:28:14;;;;;;;14.88;10.40;;;;;;;16.92;100.00;101188.44;5070725;28;20028;-66
2023/10/03 09:30:40;;;;;;;14.05;10.00;;;;;;;17.02;100.00;101197.59;5070742;28;20039;-66
2023/10/03 09:33:06;;;;;;;13.95;10.23;;;;;;;17.08;100.00;101211.03;5070485;28;20028;-64
2023/10/03 09:35:33;;;;;;;17.52;10.60;;;;;;;17.17;100.00;101210.16;5070561;28;20060;-65
2023/10/03 09:38:04;;;;;;;15.57;10.30;;;;;;;17.10;100.00;101213.47;5069942;28;20086;-66
2023/10/03 09:40:47;;;;;;;17.90;10.80;;;;;;;17.12;100.00;101231.56;5070570;28;20045;-66
2023/10/03 09:43:16;;;;;;;17.10;10.50;;;;;;;17.04;100.00;101226.03;5070817;28;20132;-66
2023/10/03 09:45:44;;;;;;;16.42;10.15;;;;;;;17.17;100.00;101221.31;5070577;28;20028;-65
2023/10/03 09:48:11;;;;;;;14.32;10.18;;;;;;;17.27;100.00;101213.34;5070711;28;20091;-66
2023/10/03 09:50:37;;;;;;;14.52;10.00;;;;;;;17.24;100.00;101224.41;5078396;28;20024;-65
2023/10/03 09:53:02;;;;;;;15.98;10.38;;;;;;;17.20;100.00;101218.66;5090986;28;20032;-64
2023/10/03 09:55:41;;;;;;;18.35;10.95;;;;;;;17.16;100.00;101217.72;5081009;28;20697;-65
2023/10/03 09:58:08;;;;;;;16.50;10.85;;;;;;;17.09;100.00;101232.25;5070847;28;20074;-65
2023/10/03 10:00:53;;;;;;;15.45;10.70;;;;;;;17.05;100.00;101227.69;5077951;28;20036;-66
2023/10/03 10:03:26;;;;;;;15.80;10.88;;;;;;;17.03;100.00;101235.59;5067773;28;20036;-65
2023/10/03 10:06:23;;;;;;;16.48;10.65;;;;;;;16.96;100.00;101239.75;5064820;28;20414;-64
2023/10/03 10:08:58;;;;;;;15.27;10.70;;;;;;;16.90;100.00;101238.28;5069954;28;20040;-65
2023/10/03 10:11:26;;;;;;;19.20;11.20;;;;;;;16.78;100.00;101252.97;5060047;28;20032;-65
2023/10/03 10:14:09;;;;;;;18.83;10.70;;;;;;;16.63;100.00;101287.91;5051717;28;20032;-65
2023/10/03 10:16:54;;;;;;;14.65;9.98;;;;;;;16.53;100.00;101288.31;5065580;28;20109;-64
2023/10/03 10:19:19;;;;;;;16.35;9.98;;;;;;;16.67;100.00;101271.31;5070033;28;20482;-65
2023/10/03 10:21:51;;;;;;;12.93;9.80;;;;;;;16.88;100.00;101278.88;5061481;28;20146;-65
2023/10/03 10:24:23;;;;;;;16.33;9.70;;;;;;;17.06;100.00;101293.59;5054336;28;20029;-65
2023/10/03 10:26:52;;;;;;;14.65;9.80;;;;;;;17.05;100.00;101312.34;5066650;28;20468;-65
2023/10/03 10:29:24;;;;;;;16.15;9.80;;;;;;;17.02;100.00;101323.38;5069354;28;20181;-65
2023/10/03 10:32:09;;;;;;;12.00;9.70;;;;;;;17.00;100.00;101309.75;5071257;28;20102;-65
2023/10/03 10:34:40;;;;;;;11.55;9.20;;;;;;;16.99;100.00;101322.09;5063369;28;20095;-64
2023/10/03 10:37:09;;;;;;;15.73;9.50;;;;;;;17.05;100.00;101315.13;5085532;28;20078;-64
2023/10/03 10:39:53;;;;;;;13.18;9.15;;;;;;;17.28;100.00;101331.59;5089967;28;20028;-63
2023/10/03 10:42:20;;;;;;;15.48;9.48;;;;;;;17.43;100.00;101333.75;5070721;28;20077;-63
2023/10/03 10:45:04;;;;;;;14.40;9.40;;;;;;;17.52;100.00;101338.50;5089737;28;20149;-64
2023/10/03 10:47:43;;;;;;;14.50;9.50;;;;;;;17.37;100.00;101349.13;5089585;28;20127;-64
2023/10/03 10:50:08;;;;;;;12.45;9.60;;;;;;;16.98;100.00;101351.19;5092296;28;20407;-64
2023/10/03 10:52:56;;;;;;;14.13;9.80;;;;;;;16.83;100.00;101355.34;5073788;28;20035;-65
2023/10/03 10:55:23;;;;;;;13.30;9.50;;;;;;;16.73;100.00;101348.19;5074163;28;20033;-64
2023/10/03 10:58:13;;;;;;;15.63;9.75;;;;;;;16.66;100.00;101359.88;5073969;28;20112;-64
2023/10/03 11:00:40;;;;;;;16.00;10.20;;;;;;;16.53;100.00;101349.75;5073808;28;20020;-65
2023/10/03 11:03:06;;;;;;;13.23;9.90;;;;;;;16.52;100.00;101351.72;5073764;28;20067;-64
2023/10/03 11:05:46;;;;;;;14.95;10.00;;;;;;;16.55;100.00;101363.38;5073625;28;20526;-65
2023/10/03 11:08:11;;;;;;;14.65;10.02;;;;;;;16.55;100.00;101374.56;5069875;28;20029;-63
2023/10/03 11:10:56;;;;;;;12.85;9.88;;;;;;;16.44;100.00;101366.53;5064332;28;20027;-62
2023/10/03 11:13:22;;;;;;;14.00;9.88;;;;;;;16.77;100.00;101371.47;5061389;28;20111;-62
2023/10/03 11:15:51;;;;;;;11.82;9.63;;;;;;;16.81;100.00;101374.44;5063983;28;20103;-61